createdAt,value
2022-10-20T00:00:46.585Z,7.8
2022-10-20T00:06:02.468Z,7.8
2022-10-20T00:11:17.810Z,7.66
2022-10-20T00:12:07.827Z,7.66
2022-10-20T00:16:39.316Z,7.49
2022-10-20T00:17:24.770Z,7.49
2022-10-20T00:22:00.510Z,7.49
2022-10-20T00:22:42.696Z,7.49
2022-10-20T00:27:21.157Z,7.39
2022-10-20T00:28:01.101Z,7.39
2022-10-20T00:32:42.446Z,7.39
2022-10-20T00:43:02.465Z,7.67
2022-10-20T00:44:48.740Z,7.67
2022-10-20T00:49:38.786Z,7.63
2022-10-20T00:50:18.710Z,7.63
2022-10-20T00:55:00.736Z,7.54
2022-10-20T00:55:40.648Z,7.54
2022-10-20T01:10:27.157Z,7.54
2022-10-20T01:15:53.288Z,7.47
2022-10-20T01:16:33.228Z,7.47
2022-10-20T01:21:05.509Z,7.47
2022-10-20T01:25:16.357Z,7.47
2022-10-20T01:30:36.368Z,7.35
2022-10-20T01:36:18.783Z,7.33
2022-10-20T01:41:31.729Z,7.33
2022-10-20T02:13:54.701Z,7.26
2022-10-20T02:19:07.091Z,7.08
2022-10-20T02:24:18.771Z,7.08
2022-10-20T02:29:27.892Z,7.06
2022-10-20T02:34:42.844Z,7.28
2022-10-20T02:39:53.826Z,7.28
2022-10-20T02:45:22.138Z,7.26
2022-10-20T02:50:31.885Z,7.26
2022-10-20T02:55:41.013Z,7.26
2022-10-20T03:00:51.408Z,7.26
2022-10-20T03:06:03.099Z,6.97
2022-10-20T03:11:12.227Z,6.97
2022-10-20T03:16:22.598Z,7.46
2022-10-20T03:21:31.756Z,7.46
2022-10-20T03:26:41.503Z,7.34
2022-10-20T03:31:51.370Z,7.34
2022-10-20T03:37:01.012Z,7.27
2022-10-20T03:42:16.408Z,7.27
2022-10-20T03:47:33.854Z,7.17
2022-10-20T03:52:49.988Z,7.17
2022-10-20T03:58:06.143Z,7.31
2022-10-20T04:03:21.060Z,7.31
2022-10-20T04:08:36.555Z,7.4
2022-10-20T04:13:51.426Z,7.4
2022-10-20T04:19:07.612Z,7.28
2022-10-20T04:23:28.870Z,7.28
2022-10-20T04:28:37.325Z,7.31
2022-10-20T04:33:47.733Z,7.31
2022-10-20T04:38:57.495Z,7.23
2022-10-20T04:44:05.968Z,7.23
2022-10-20T04:49:15.698Z,7.21
2022-10-20T04:54:24.860Z,7.21
2022-10-20T04:59:35.270Z,7.3
2022-10-20T05:04:49.850Z,7.3
2022-10-20T05:10:06.724Z,7.45
2022-10-20T05:15:22.446Z,7.66
2022-10-20T05:20:41.050Z,7.66
2022-10-20T05:36:27.563Z,7.52
2022-10-20T05:41:45.005Z,7.52
2022-10-20T05:47:04.048Z,7.42
2022-10-20T05:51:30.536Z,7.42
2022-10-20T05:57:36.844Z,7.47
2022-10-20T06:08:11.086Z,7.48
2022-10-20T06:17:55.179Z,7.51
2022-10-20T06:22:20.694Z,7.51
2022-10-20T06:27:37.159Z,7.45
2022-10-20T06:32:53.899Z,7.45
2022-10-20T06:38:10.537Z,7.62
2022-10-20T06:43:27.249Z,7.62
2022-10-20T06:48:44.045Z,7.64
2022-10-20T06:54:02.285Z,7.64
2022-10-20T06:59:18.931Z,7.39
2022-10-20T07:04:37.123Z,7.39
2022-10-20T07:09:03.921Z,8.25
2022-10-20T07:13:38.765Z,8.25
2022-10-20T07:18:48.449Z,7.63
2022-10-20T07:23:57.018Z,7.63
2022-10-20T07:29:05.568Z,7.77
2022-10-20T07:34:28.409Z,7.77
2022-10-20T07:39:25.069Z,7.45
2022-10-20T07:44:34.156Z,7.45
2022-10-20T07:49:45.716Z,7.63
2022-10-20T07:55:39.540Z,7.63
2022-10-20T08:00:02.121Z,7.55
2022-10-20T08:05:11.249Z,7.55
2022-10-20T08:10:20.541Z,7.4
2022-10-20T08:15:30.156Z,7.62
2022-10-20T08:20:39.522Z,7.62
2022-10-20T08:25:48.357Z,7.46
2022-10-20T08:30:56.889Z,7.46
2022-10-20T08:36:08.410Z,7.37
2022-10-20T08:41:25.666Z,7.37
2022-10-20T08:46:42.183Z,7.79
2022-10-20T08:52:00.279Z,7.79
2022-10-20T08:57:09.970Z,7.52
2022-10-20T09:02:19.088Z,7.52
2022-10-20T09:07:29.491Z,7.66
2022-10-20T09:13:01.345Z,7.66
2022-10-20T09:18:29.170Z,7.88
2022-10-20T09:23:42.653Z,7.88
2022-10-20T09:29:11.913Z,7.77
2022-10-20T09:34:16.892Z,7.77
2022-10-20T09:39:18.352Z,7.74
2022-10-20T09:44:33.215Z,7.74
2022-10-20T09:49:48.060Z,7.7
2022-10-20T09:55:03.583Z,7.7
2022-10-20T10:00:37.516Z,7.84
2022-10-20T10:05:40.920Z,7.84
2022-10-20T10:10:52.134Z,8.01
2022-10-20T10:15:18.227Z,8.01
2022-10-20T10:19:56.693Z,7.75
2022-10-20T10:24:59.735Z,7.75
2022-10-20T10:30:08.845Z,7.84
2022-10-20T10:35:19.241Z,7.84
2022-10-20T10:40:34.154Z,7.8
2022-10-20T10:45:44.001Z,7.8
2022-10-20T10:50:54.925Z,7.8
2022-10-20T10:56:03.778Z,8
2022-10-20T11:01:14.870Z,8
2022-10-20T11:06:23.035Z,7.81
2022-10-20T11:11:32.717Z,7.81
2022-10-20T11:16:41.176Z,7.78
2022-10-20T11:21:34.930Z,7.78
2022-10-20T11:22:15.298Z,7.78
2022-10-20T11:26:51.089Z,7.75
2022-10-20T11:27:31.020Z,7.75
2022-10-20T11:32:12.122Z,7.75
2022-10-20T11:35:08.153Z,7.75
2022-10-20T11:40:21.055Z,7.95
2022-10-20T11:46:26.544Z,7.95
2022-10-20T11:47:16.544Z,7.95
2022-10-20T11:52:11.087Z,7.91
2022-10-20T11:53:03.042Z,7.91
2022-10-20T11:58:13.972Z,7.79
2022-10-20T11:58:53.905Z,7.79
2022-10-20T12:03:41.039Z,7.79
2022-10-20T12:04:25.688Z,7.79
2022-10-20T12:09:25.590Z,7.82
2022-10-20T12:15:35.247Z,7.82
2022-10-20T12:17:55.182Z,7.82
2022-10-20T12:22:25.825Z,7.88
2022-10-20T12:24:05.849Z,7.88
2022-10-20T12:33:49.649Z,7.95
2022-10-20T12:35:20.560Z,7.95
2022-10-20T12:40:30.284Z,8.05
2022-10-20T12:41:10.218Z,8.05
2022-10-20T12:45:50.926Z,8.05
2022-10-20T12:46:30.854Z,8.05
2022-10-20T12:51:38.501Z,7.95
2022-10-20T12:54:48.976Z,7.95
2022-10-20T13:05:17.427Z,7.92
2022-10-20T13:10:27.185Z,7.95
2022-10-20T13:13:56.575Z,7.95
2022-10-20T13:19:06.703Z,7.84
2022-10-20T13:25:57.096Z,7.84
2022-10-20T13:31:06.225Z,7.84
2022-10-20T13:36:24.296Z,8.1
2022-10-20T13:37:14.655Z,8.1
2022-10-20T13:41:25.741Z,7.87
2022-10-20T13:42:15.734Z,7.87
2022-10-20T13:46:36.454Z,7.87
2022-10-20T13:47:26.447Z,7.87
2022-10-20T13:51:05.663Z,8.08
2022-10-20T13:51:55.703Z,8.08
2022-10-20T13:57:05.167Z,8.08
2022-10-20T14:02:20.806Z,7.88
2022-10-20T14:03:10.805Z,7.88
2022-10-20T14:07:40.411Z,7.87
2022-10-20T14:09:54.806Z,7.87
2022-10-20T14:15:02.556Z,7.87
2022-10-20T14:23:23.426Z,8
2022-10-20T14:24:13.425Z,8
2022-10-20T14:28:40.230Z,7.99
2022-10-20T14:29:30.223Z,7.99
2022-10-20T14:34:35.085Z,7.99
2022-10-20T14:35:15.022Z,7.99
2022-10-20T14:39:53.796Z,8
2022-10-20T14:41:46.152Z,8
2022-10-20T14:46:55.617Z,8
2022-10-20T14:47:42.645Z,8
2022-10-20T14:52:21.484Z,7.99
2022-10-20T14:54:59.779Z,7.99
2022-10-20T15:00:17.232Z,7.87
2022-10-20T15:07:31.019Z,7.87
2022-10-20T15:10:48.940Z,7.87
2022-10-20T15:16:03.769Z,7.86
2022-10-20T15:21:56.710Z,7.85
2022-10-20T15:24:47.233Z,7.85
2022-10-20T15:29:56.070Z,7.89
2022-10-20T15:30:36.012Z,7.89
2022-10-20T15:35:13.518Z,7.89
2022-10-20T15:35:53.451Z,7.89
2022-10-20T15:40:34.125Z,8.05
2022-10-20T15:42:04.073Z,8.05
2022-10-20T15:45:56.688Z,8.05
2022-10-20T15:49:06.624Z,8.05
2022-10-20T15:53:55.025Z,7.91
2022-10-20T15:59:14.801Z,8
2022-10-20T15:59:56.025Z,8
2022-10-20T16:05:03.605Z,8
2022-10-20T16:07:03.699Z,8
2022-10-20T16:12:06.611Z,8.11
2022-10-20T16:20:00.675Z,8.03
2022-10-20T16:20:50.675Z,8.03
2022-10-20T16:25:15.534Z,8.03
2022-10-20T16:30:44.687Z,7.9
2022-10-20T16:35:50.410Z,7.9
2022-10-20T16:41:04.623Z,7.94
2022-10-20T16:46:21.280Z,7.94
2022-10-20T16:52:12.358Z,7.94
2022-10-20T16:59:16.049Z,8.14
2022-10-20T17:01:35.983Z,8.14
2022-10-20T17:05:46.798Z,8.14
2022-10-20T17:12:40.328Z,8.31
2022-10-20T17:17:55.181Z,8.31
2022-10-20T17:18:45.185Z,8.31
2022-10-20T17:23:00.699Z,8.19
2022-10-20T17:33:41.778Z,7.75
2022-10-20T17:39:26.925Z,7.82
2022-10-20T17:49:12.289Z,7.82
2022-10-20T17:54:23.344Z,7.99
2022-10-20T17:59:34.868Z,7.98
2022-10-20T18:03:54.814Z,7.98
2022-10-20T18:08:14.534Z,7.88
2022-10-20T18:13:24.330Z,7.88
2022-10-20T18:18:34.692Z,7.74
2022-10-20T18:23:45.095Z,7.74
2022-10-20T18:28:52.750Z,8.02
2022-10-20T18:34:07.677Z,8.02
2022-10-20T18:39:16.696Z,7.73
2022-10-20T18:44:26.969Z,7.73
2022-10-20T18:49:34.929Z,7.99
2022-10-20T18:54:47.249Z,7.99
2022-10-20T18:59:56.409Z,7.91
2022-10-20T19:05:04.852Z,7.91
2022-10-20T19:10:14.241Z,7.78
2022-10-20T19:15:23.970Z,7.78
2022-10-20T19:20:33.089Z,7.93
2022-10-20T19:25:42.256Z,7.93
2022-10-20T19:30:53.334Z,7.93
2022-10-20T19:36:03.018Z,7.93
2022-10-20T19:41:13.446Z,7.94
2022-10-20T19:46:27.716Z,7.94
2022-10-20T19:51:32.969Z,8
2022-10-20T19:56:43.336Z,8
2022-10-20T20:01:52.537Z,7.92
2022-10-20T20:07:02.810Z,7.92
2022-10-20T20:12:12.020Z,8.26
2022-10-20T20:17:13.809Z,8.26
2022-10-20T20:22:33.419Z,7.99
2022-10-20T20:27:42.539Z,7.99
2022-10-20T20:33:00.305Z,7.98
2022-10-20T20:38:59.204Z,7.98
2022-10-20T20:44:14.137Z,7.86
2022-10-20T20:54:45.736Z,7.92
2022-10-20T21:05:16.141Z,7.82
2022-10-20T21:10:31.702Z,8.01
2022-10-20T21:15:46.555Z,8.01
2022-10-20T21:21:01.484Z,7.74
2022-10-20T21:26:13.770Z,7.74
2022-10-20T21:31:24.138Z,7.69
2022-10-20T21:36:33.293Z,7.69
2022-10-20T21:40:03.059Z,8.05
2022-10-20T21:45:15.396Z,8.05
2022-10-20T21:50:22.538Z,7.84
2022-10-20T21:55:32.325Z,7.84
2022-10-20T22:00:42.116Z,7.85
2022-10-20T22:05:50.534Z,7.85
2022-10-20T22:10:59.336Z,8.05
2022-10-20T22:16:09.411Z,8.05
2022-10-20T22:21:18.574Z,7.85
2022-10-20T22:26:28.300Z,7.85
2022-10-20T22:31:38.748Z,7.86
2022-10-20T22:36:48.456Z,7.86
2022-10-20T22:41:57.617Z,7.89
2022-10-20T22:47:08.613Z,7.89
2022-10-20T22:52:19.019Z,8.18
2022-10-20T22:57:28.808Z,8.18
2022-10-20T23:02:37.550Z,7.89
2022-10-20T23:07:47.020Z,7.89
2022-10-20T23:12:56.169Z,8.4
2022-10-20T23:18:03.980Z,8.4
2022-10-20T23:23:15.689Z,8.17
2022-10-20T23:28:26.055Z,8.17
2022-10-20T23:33:35.232Z,8.25
2022-10-20T23:38:43.035Z,8.25
2022-10-20T23:43:52.772Z,8.39
2022-10-20T23:49:02.535Z,8.39
2022-10-20T23:54:28.037Z,8.24
2022-10-20T23:59:37.847Z,8.57
